»·PEaware :: N741SG KSNA-KBUR

N741SG :: KSNA-KBUR

FLIGHT INFORMATION

Flight Status: Arrived
Operator: Privately registered:
United States
More flights under this callsign
Pilot: Carl R. (23234)
Aircraft: CESSNA 172 SKYHAWK
(C172)
More flights by this aircraft type
Origin: KSNA John Wayne-Orange Co
United States
Destination: KBUR Bob Hope-Burbank
United States
More flights between these airports :: More routes between these airports
Route: SLI V23 POPPR SMO125 SMO SMO311 SILEX
File this flight plan on PilotEdge
Remarks: TEC CSTP1 (I-03)
Altitude:
(Current/Filed)
4,000ft
Speed:
(Current/Filed)
110kts
Departed: 04-Feb-19 09:23 AM
Arrived: 04-Feb-19 10:01 AM
Distance/Time
Traveled:
40nm/0:38
Distance/Time
To Go:
Arrived

Flight Plot

Page will automatically refresh every two minutes.


Map Options




Map Legend


Flown Route
Filed Route
Departure Airport
Arrival Airport
Navaid (VOR, NDB)
Fix

Horizontal Profiles

Position Reports

Time Latitude Longitude Heading Altitude Ground
Speed
04-Feb-19 09:05 33.676080 -117.870909 219 60ft 0kts
04-Feb-19 09:06 33.676080 -117.870909 219 60ft 0kts
04-Feb-19 09:07 33.676080 -117.870909 219 60ft 0kts
04-Feb-19 09:08 33.676080 -117.870909 219 60ft 0kts
04-Feb-19 09:09 33.676080 -117.870909 219 60ft 0kts
04-Feb-19 09:10 33.676080 -117.870909 219 60ft 0kts
04-Feb-19 09:11 33.676080 -117.870909 219 60ft 0kts
04-Feb-19 09:12 33.676080 -117.870909 219 60ft 0kts
04-Feb-19 09:13 33.676080 -117.870909 219 60ft 0kts
04-Feb-19 09:14 33.676080 -117.870909 219 60ft 0kts
04-Feb-19 09:15 33.676080 -117.870909 219 60ft 0kts
04-Feb-19 09:16 33.676080 -117.870909 219 60ft 0kts
04-Feb-19 09:17 33.675852 -117.870714 123 60ft 0kts
04-Feb-19 09:18 33.677481 -117.869185 28 60ft 16kts
04-Feb-19 09:19 33.681289 -117.866402 118 60ft 4kts
04-Feb-19 09:20 33.681261 -117.866363 140 60ft 0kts
04-Feb-19 09:21 33.680657 -117.865668 207 60ft 0kts
04-Feb-19 09:22 33.667481 -117.877786 234 694ft 81kts
04-Feb-19 09:23 33.653790 -117.900750 224 1667ft 85kts
04-Feb-19 09:24 33.641460 -117.925188 265 2583ft 98kts
04-Feb-19 09:25 33.663101 -117.944267 331 3565ft 95kts
04-Feb-19 09:26 33.690382 -117.957105 333 4015ft 131kts
04-Feb-19 09:27 33.724291 -117.973460 333 4009ft 130kts
04-Feb-19 09:28 33.756751 -117.991663 295 4007ft 122kts
04-Feb-19 09:29 33.767644 -118.028828 279 4009ft 119kts
04-Feb-19 09:30 33.784217 -118.064511 291 4010ft 122kts
04-Feb-19 09:31 33.794012 -118.099992 262 4009ft 107kts
04-Feb-19 09:32 33.800769 -118.135577 280 4008ft 110kts
04-Feb-19 09:33 33.812361 -118.169124 283 4008ft 106kts
04-Feb-19 09:34 33.819552 -118.202163 281 4008ft 104kts
04-Feb-19 09:35 33.829222 -118.234898 275 4008ft 102kts
04-Feb-19 09:36 33.836703 -118.268139 275 3999ft 103kts
04-Feb-19 09:37 33.851190 -118.299423 307 4000ft 118kts
04-Feb-19 09:38 33.876610 -118.325198 312 4000ft 120kts
04-Feb-19 09:39 33.902343 -118.350939 308 4000ft 119kts
04-Feb-19 09:40 33.924183 -118.380112 308 3999ft 119kts
04-Feb-19 09:41 33.951512 -118.403117 317 3999ft 118kts
04-Feb-19 09:42 33.979426 -118.424587 317 3990ft 119kts
04-Feb-19 09:43 34.004032 -118.449918 306 3990ft 115kts
04-Feb-19 09:44 34.030277 -118.473815 319 3990ft 120kts
04-Feb-19 09:45 34.058675 -118.495193 318 3991ft 119kts
04-Feb-19 09:46 34.086686 -118.516912 318 3991ft 119kts
04-Feb-19 09:47 34.108967 -118.542179 271 3987ft 103kts
04-Feb-19 09:48 34.113034 -118.576489 269 3986ft 102kts
04-Feb-19 09:49 34.117040 -118.610601 273 3985ft 103kts
04-Feb-19 09:50 34.146169 -118.626838 337 3986ft 124kts
04-Feb-19 09:51 34.179160 -118.637540 339 3967ft 126kts
04-Feb-19 09:52 34.203862 -118.611293 87 3967ft 123kts
04-Feb-19 09:53 34.200230 -118.572024 106 3968ft 116kts
04-Feb-19 09:54 34.199252 -118.533485 99 3499ft 103kts
04-Feb-19 09:55 34.199441 -118.498219 101 2876ft 103kts
04-Feb-19 09:56 34.199061 -118.463919 97 2367ft 101kts
04-Feb-19 09:57 34.198559 -118.430536 98 1868ft 96kts
04-Feb-19 09:58 34.198105 -118.398960 98 1340ft 91kts
04-Feb-19 09:59 34.197884 -118.367780 97 831ft 69kts
04-Feb-19 10:00 34.196991 -118.360298 183 781ft 4kts
04-Feb-19 10:01 34.195829 -118.360323 12 781ft 0kts
04-Feb-19 10:02 34.195829 -118.360323 12 781ft 0kts
04-Feb-19 10:03 34.195829 -118.360323 12 781ft 0kts

Navigation Log

Ident Type
Flight plan parsing failed, navigation log unavailable